Bismarck (BIS/KBIS)

Map

Destinations

Information

Location
Bismarck, ND
Local Time
17:39 / 5:39 pm
GMT Time
22:39 / 10:39 pm
Gates
10
No FAA reported delays
METAR KBIS 242152Z AUTO 15017G24KT 10SM CLR 32/18 A2980 RMK AO2 SLP080 T03220178
TAF KBIS 241726Z 2418/2518 16015G22KT P6SM FEW100 SCT200 FM250200 14009KT P6SM FEW100 FEW250 FM250600 06006KT P6SM FEW110 SCT250